CheckWX is a tool to help pilots better visualize weather data.  It is not intended as a substitute for an official pre-flight weather briefing.

15:22:43 UTC

EPKS TAF
Krzesiny Military Air Base Airport
Poland
TAF EPKS 231400Z 2315/2324 29008KT CAVOK TEMPO 2317/2324 BKN017

Mar-23@
15:00 UTC

Mar-23 @ 15:00 UTC

Mar-24@
00:00 UTC

Mar-24 @ 00:00 UTC

TAF EPKS 231400Z 2315/2324 29008KT CAVOK
Wind
  • 290° at 8 KTS
Conditions
No significant weather
Cloud Levels
  • No significant clouds

Mar-23@
17:00 UTC

Mar-23 @ 17:00 UTC

Mar-24@
00:00 UTC

Mar-24 @ 00:00 UTC

TEMPO 2317/2324 BKN017

Temporary

Temporary Changes expected for less than half the time period

Cloud Levels
  • Broken at 1,700' AGL